Savannah, Georgia
Current Conditions -  °F | °C
As of 3:58 PM on Sunday 23 Nov 2014 (Local Time) from KSVN Reporting Station
Overcast Overcast  
Wind Chill: 69°   Ceiling: 300
Heat Index: 69°   Visibility: 7mi
Dew Point: 69°   Wind: 7mph
Humidity: 100%   Direction: 120°ESE
Pressure: 29.83"   Gusts: NA
Location:  32.08°N, 81.09°W
Report Text: KSVN 232058Z AUTO 12006KT 7SM OVC003 21/21 A2983 RMK AO2 SLP104 60000 T02060206 57028
Loading
Personal Weather Stations






























Interactive Weather Map New forecast layout! Learn more

10-Day Weather Forecast

Advertisements
Track Severe Weather on mobile